createdAt,value
2023-07-24T00:02:11.941Z,20.26
2023-07-24T00:04:39.657Z,20.36
2023-07-24T00:07:07.875Z,20.47
2023-07-24T00:09:35.585Z,20.42
2023-07-24T00:12:03.348Z,20.50
2023-07-24T00:14:32.270Z,20.61
2023-07-24T00:17:01.460Z,20.60
2023-07-24T00:19:29.175Z,20.64
2023-07-24T00:21:56.876Z,20.88
2023-07-24T00:24:24.696Z,21.00
2023-07-24T00:26:52.445Z,20.96
2023-07-24T00:29:20.227Z,20.43
2023-07-24T00:31:47.969Z,20.73
2023-07-24T00:34:17.080Z,20.68
2023-07-24T00:36:44.864Z,20.73
2023-07-24T00:39:13.016Z,20.71
2023-07-24T00:41:40.746Z,20.83
2023-07-24T00:44:08.617Z,21.08
2023-07-24T00:46:37.532Z,20.44
2023-07-24T00:49:06.938Z,20.42
2023-07-24T00:51:36.869Z,20.62
2023-07-24T00:54:05.637Z,20.72
2023-07-24T00:56:34.299Z,20.74
2023-07-24T00:59:02.887Z,20.49
2023-07-24T01:01:31.029Z,20.68
2023-07-24T01:03:59.488Z,20.67
2023-07-24T01:06:27.532Z,20.80
2023-07-24T01:08:57.075Z,20.80
2023-07-24T01:11:29.797Z,20.86
2023-07-24T01:14:01.502Z,20.82
2023-07-24T01:16:38.266Z,20.68
2023-07-24T01:19:11.607Z,20.61
2023-07-24T01:21:54.036Z,20.34
2023-07-24T01:24:32.689Z,20.64
2023-07-24T01:27:01.853Z,20.53
2023-07-24T01:29:29.621Z,20.42
2023-07-24T01:31:57.595Z,20.54
2023-07-24T01:34:25.352Z,20.64
2023-07-24T01:36:53.233Z,20.68
2023-07-24T01:39:22.353Z,20.77
2023-07-24T01:41:50.136Z,20.79
2023-07-24T01:44:20.172Z,20.69
2023-07-24T01:46:48.040Z,20.56
2023-07-24T01:49:15.898Z,20.41
2023-07-24T01:51:43.789Z,20.44
2023-07-24T01:54:11.534Z,20.50
2023-07-24T01:56:40.652Z,20.21
2023-07-24T01:59:08.462Z,19.92
2023-07-24T02:01:37.700Z,20.19
2023-07-24T02:04:05.796Z,20.12
2023-07-24T02:06:33.535Z,20.41
2023-07-24T02:09:01.263Z,20.33
2023-07-24T02:11:29.042Z,20.38
2023-07-24T02:13:56.869Z,20.40
2023-07-24T02:16:24.697Z,20.51
2023-07-24T02:18:53.868Z,20.64
2023-07-24T02:21:21.586Z,20.74
2023-07-24T02:23:49.350Z,20.41
2023-07-24T02:26:17.092Z,20.41
2023-07-24T02:28:44.794Z,20.37
2023-07-24T02:31:12.760Z,20.39
2023-07-24T02:33:40.559Z,20.55
2023-07-24T02:36:10.207Z,20.54
2023-07-24T02:38:38.115Z,20.67
2023-07-24T02:41:05.870Z,20.72
2023-07-24T02:43:33.671Z,20.62
2023-07-24T02:46:03.559Z,20.56
2023-07-24T02:48:31.495Z,20.65
2023-07-24T02:50:59.263Z,20.78
2023-07-24T02:53:28.477Z,20.69
2023-07-24T02:55:56.247Z,19.95
2023-07-24T02:58:23.979Z,20.12
2023-07-24T03:00:51.859Z,20.37
2023-07-24T03:03:19.730Z,20.30
2023-07-24T03:05:47.556Z,20.18
2023-07-24T03:08:15.319Z,20.48
2023-07-24T03:10:44.747Z,20.29
2023-07-24T03:13:12.527Z,20.38
2023-07-24T03:15:40.312Z,20.34
2023-07-24T03:18:08.155Z,20.41
2023-07-24T03:20:35.941Z,20.27
2023-07-24T03:23:03.680Z,20.37
2023-07-24T03:25:32.727Z,20.48
2023-07-24T03:28:01.846Z,20.41
2023-07-24T03:30:29.559Z,20.34
2023-07-24T03:32:57.409Z,20.33
2023-07-24T03:35:25.217Z,20.63
2023-07-24T03:37:52.992Z,20.48
2023-07-24T03:40:20.790Z,20.41
2023-07-24T03:42:48.488Z,20.49
2023-07-24T03:45:17.605Z,20.52
2023-07-24T03:47:45.641Z,20.05
2023-07-24T03:50:13.503Z,20.26
2023-07-24T03:52:41.270Z,20.24
2023-07-24T03:55:10.334Z,20.25
2023-07-24T03:57:38.119Z,20.40
2023-07-24T04:00:06.902Z,20.27
2023-07-24T04:02:36.047Z,20.06
2023-07-24T04:05:03.868Z,20.12
2023-07-24T04:07:31.602Z,20.23
2023-07-24T04:09:59.580Z,20.30
2023-07-24T04:12:27.367Z,20.38
2023-07-24T04:14:55.133Z,20.34
2023-07-24T04:17:23.128Z,20.25
2023-07-24T04:19:52.261Z,20.22
2023-07-24T04:22:19.990Z,19.98
2023-07-24T04:24:47.814Z,20.10
2023-07-24T04:27:15.941Z,20.11
2023-07-24T04:29:43.733Z,20.21
2023-07-24T04:32:11.471Z,20.15
2023-07-24T04:34:39.394Z,20.19
2023-07-24T04:37:08.489Z,20.08
2023-07-24T04:39:36.254Z,19.64
2023-07-24T04:42:04.160Z,19.90
2023-07-24T04:44:33.017Z,19.82
2023-07-24T04:47:00.871Z,19.75
2023-07-24T04:49:30.830Z,19.89
2023-07-24T04:51:58.693Z,20.06
2023-07-24T04:54:27.820Z,20.26
2023-07-24T04:56:55.520Z,20.24
2023-07-24T04:59:23.334Z,20.22
2023-07-24T05:01:51.065Z,20.44
2023-07-24T05:04:18.943Z,20.18
2023-07-24T05:06:46.694Z,19.82
2023-07-24T05:09:15.489Z,20.10
2023-07-24T05:11:45.809Z,20.29
2023-07-24T05:14:13.590Z,20.36
2023-07-24T05:16:41.381Z,20.44
2023-07-24T05:19:09.195Z,20.30
2023-07-24T05:21:36.947Z,20.34
2023-07-24T05:24:05.010Z,19.98
2023-07-24T05:26:33.107Z,19.99
2023-07-24T05:29:02.487Z,19.95
2023-07-24T05:31:30.220Z,20.26
2023-07-24T05:33:58.065Z,20.34
2023-07-24T05:36:25.853Z,20.38
2023-07-24T05:38:53.975Z,20.17
2023-07-24T05:41:21.709Z,20.10
2023-07-24T05:43:49.481Z,20.08
2023-07-24T05:46:18.623Z,20.36
2023-07-24T05:48:46.415Z,20.18
2023-07-24T05:51:14.146Z,20.59
2023-07-24T05:53:41.975Z,20.78
2023-07-24T05:56:09.831Z,20.82
2023-07-24T05:58:37.625Z,20.22
2023-07-24T06:01:05.720Z,20.49
2023-07-24T06:03:34.969Z,20.44
2023-07-24T06:06:02.738Z,20.37
2023-07-24T06:08:30.780Z,20.56
2023-07-24T06:10:58.570Z,20.21
2023-07-24T06:13:26.410Z,20.54
2023-07-24T06:15:54.851Z,20.31
2023-07-24T06:18:22.593Z,20.29
2023-07-24T06:20:54.840Z,20.42
2023-07-24T06:23:22.615Z,20.69
2023-07-24T06:25:50.327Z,20.94
2023-07-24T06:28:18.083Z,20.84
2023-07-24T06:30:45.866Z,20.72
2023-07-24T06:33:13.674Z,21.06
2023-07-24T06:35:41.444Z,20.66
2023-07-24T06:38:10.540Z,20.82
2023-07-24T06:40:38.301Z,21.17
2023-07-24T06:43:06.061Z,20.91
2023-07-24T06:45:33.907Z,21.28
2023-07-24T06:48:01.702Z,20.75
2023-07-24T06:50:29.517Z,20.94
2023-07-24T06:52:57.348Z,20.97
2023-07-24T06:55:26.485Z,20.70
2023-07-24T06:57:54.245Z,20.69
2023-07-24T07:00:22.074Z,21.08
2023-07-24T07:02:49.846Z,21.06
2023-07-24T07:05:17.756Z,21.16
2023-07-24T07:07:45.739Z,21.17
2023-07-24T07:10:13.500Z,21.59
2023-07-24T07:12:42.598Z,21.72
2023-07-24T07:15:11.094Z,21.86
2023-07-24T07:17:38.826Z,21.38
2023-07-24T07:20:08.358Z,21.34
2023-07-24T07:22:36.691Z,20.89
2023-07-24T07:25:04.743Z,20.98
2023-07-24T07:27:32.557Z,21.30
2023-07-24T07:30:01.708Z,21.53
2023-07-24T07:32:29.528Z,21.45
2023-07-24T07:34:57.319Z,21.43
2023-07-24T07:37:25.033Z,21.85
2023-07-24T07:39:52.779Z,21.54
2023-07-24T07:42:20.602Z,21.78
2023-07-24T07:44:48.484Z,21.69
2023-07-24T07:47:17.594Z,21.30
2023-07-24T07:49:45.341Z,21.37
2023-07-24T07:52:13.799Z,21.12
2023-07-24T07:54:41.620Z,21.31
2023-07-24T07:57:09.363Z,20.91
2023-07-24T07:59:37.238Z,21.39
2023-07-24T08:02:05.437Z,21.47
2023-07-24T08:04:34.573Z,21.75
2023-07-24T08:07:02.434Z,22.32
2023-07-24T08:09:30.481Z,22.14
2023-07-24T08:11:58.282Z,22.26
2023-07-24T08:14:26.087Z,22.53
2023-07-24T08:16:54.417Z,22.19
2023-07-24T08:19:22.402Z,22.31
2023-07-24T08:21:51.519Z,21.88
2023-07-24T08:24:19.292Z,21.59
2023-07-24T08:26:47.055Z,22.04
2023-07-24T08:29:14.972Z,22.09
2023-07-24T08:31:42.725Z,21.84
2023-07-24T08:34:10.550Z,21.38
2023-07-24T08:36:38.809Z,21.84
2023-07-24T08:39:07.904Z,21.91
2023-07-24T08:41:36.387Z,21.71
2023-07-24T08:44:04.570Z,21.92
2023-07-24T08:46:32.651Z,22.33
2023-07-24T08:49:00.751Z,22.49
2023-07-24T08:51:29.104Z,22.38
2023-07-24T08:53:58.135Z,22.53
2023-07-24T08:56:27.335Z,22.98
2023-07-24T08:58:55.212Z,23.05
2023-07-24T09:01:22.953Z,22.57
2023-07-24T09:03:53.156Z,23.13
2023-07-24T09:06:21.122Z,22.57
2023-07-24T09:08:48.876Z,23.22
2023-07-24T09:11:17.148Z,23.21
2023-07-24T09:13:46.585Z,22.81
2023-07-24T09:16:23.514Z,22.72
2023-07-24T09:18:59.873Z,23.52
2023-07-24T09:21:38.101Z,23.07
2023-07-24T09:24:13.778Z,23.14
2023-07-24T09:26:51.470Z,23.22
2023-07-24T09:29:21.771Z,23.14
2023-07-24T09:31:49.955Z,23.14
2023-07-24T09:34:18.945Z,23.16
2023-07-24T09:36:47.382Z,23.50
2023-07-24T09:39:15.100Z,23.53
2023-07-24T09:41:42.936Z,23.69
2023-07-24T09:44:14.734Z,23.17
2023-07-24T09:47:00.954Z,23.11
2023-07-24T09:49:31.250Z,23.22
2023-07-24T09:52:04.570Z,23.50
2023-07-24T09:54:42.029Z,23.37
2023-07-24T09:57:21.346Z,23.51
2023-07-24T09:59:51.752Z,23.29
2023-07-24T10:02:21.346Z,23.62
2023-07-24T10:04:49.868Z,24.20
2023-07-24T10:07:18.079Z,24.20
2023-07-24T10:09:46.010Z,23.95
2023-07-24T10:12:14.008Z,23.87
2023-07-24T10:14:42.496Z,24.22
2023-07-24T10:17:10.487Z,24.04
2023-07-24T10:19:43.038Z,23.56
2023-07-24T10:22:11.872Z,23.87
2023-07-24T10:24:43.083Z,24.35
2023-07-24T10:27:11.058Z,23.85
2023-07-24T10:29:38.874Z,24.53
2023-07-24T10:32:18.499Z,22.98
2023-07-24T10:34:47.753Z,23.60
2023-07-24T10:37:15.464Z,23.76
2023-07-24T10:39:43.621Z,23.88
2023-07-24T10:42:12.393Z,23.70
2023-07-24T10:44:41.666Z,23.95
2023-07-24T10:47:09.409Z,24.43
2023-07-24T10:49:37.222Z,24.51
2023-07-24T10:52:07.078Z,24.76
2023-07-24T10:54:34.934Z,24.23
2023-07-24T10:57:02.948Z,23.77
2023-07-24T10:59:40.882Z,24.86
2023-07-24T11:02:11.282Z,24.92
2023-07-24T11:04:39.184Z,23.80
2023-07-24T11:07:08.666Z,23.75
2023-07-24T11:09:37.857Z,23.66
2023-07-24T11:12:20.287Z,23.29
2023-07-24T11:14:50.909Z,23.86
2023-07-24T11:17:19.137Z,24.39
2023-07-24T11:19:47.232Z,24.02
2023-07-24T11:22:16.806Z,23.84
2023-07-24T11:24:46.227Z,24.59
2023-07-24T11:27:16.936Z,23.80
2023-07-24T11:29:49.683Z,24.53
2023-07-24T11:32:20.281Z,25.35
2023-07-24T11:34:49.057Z,25.22
2023-07-24T11:37:19.288Z,25.09
2023-07-24T11:39:57.507Z,24.47
2023-07-24T11:42:27.407Z,24.13
2023-07-24T11:44:55.903Z,24.09
2023-07-24T11:47:23.852Z,23.87
2023-07-24T11:50:02.103Z,24.66
2023-07-24T11:52:42.066Z,25.10
2023-07-24T11:55:10.305Z,25.25
2023-07-24T11:57:38.081Z,25.30
2023-07-24T12:00:07.114Z,24.48
2023-07-24T12:02:35.618Z,24.75
2023-07-24T12:05:03.826Z,25.03
2023-07-24T12:07:34.661Z,24.88
2023-07-24T12:10:05.625Z,24.77
2023-07-24T12:12:47.191Z,24.24
2023-07-24T12:15:16.674Z,25.05
2023-07-24T12:17:44.458Z,24.35
2023-07-24T12:20:12.695Z,24.34
2023-07-24T12:22:41.106Z,24.87
2023-07-24T12:25:13.675Z,24.70
2023-07-24T12:27:42.842Z,25.01
2023-07-24T12:30:10.975Z,25.26
2023-07-24T12:32:38.804Z,25.98
2023-07-24T12:35:07.570Z,25.79
2023-07-24T12:37:35.325Z,26.22
2023-07-24T12:40:03.372Z,26.02
2023-07-24T12:42:32.524Z,25.74
2023-07-24T12:45:00.414Z,25.49
2023-07-24T12:47:28.345Z,26.11
2023-07-24T12:49:57.315Z,26.39
2023-07-24T12:52:25.298Z,27.26
2023-07-24T12:55:01.631Z,26.87
2023-07-24T12:57:30.295Z,26.77
2023-07-24T12:59:59.519Z,27.14
2023-07-24T13:02:27.297Z,26.68
2023-07-24T13:04:55.102Z,26.84
2023-07-24T13:07:22.917Z,26.71
2023-07-24T13:09:50.674Z,26.40
2023-07-24T13:12:19.593Z,26.63
2023-07-24T13:14:47.289Z,26.53
2023-07-24T13:17:16.500Z,27.05
2023-07-24T13:19:44.390Z,26.70
2023-07-24T13:22:12.132Z,27.04
2023-07-24T13:24:39.881Z,27.36
2023-07-24T13:27:08.365Z,27.99
2023-07-24T13:29:36.162Z,28.33
2023-07-24T13:32:03.932Z,28.26
2023-07-24T13:34:33.035Z,28.02
2023-07-24T13:37:00.748Z,27.89
2023-07-24T13:39:29.369Z,28.09
2023-07-24T13:41:57.153Z,27.71
2023-07-24T13:44:24.928Z,26.79
2023-07-24T13:46:52.716Z,27.07
2023-07-24T13:49:20.531Z,28.05
2023-07-24T13:51:49.630Z,28.47
2023-07-24T13:54:17.373Z,28.76
2023-07-24T13:56:45.144Z,28.99
2023-07-24T13:59:12.871Z,28.31
2023-07-24T14:01:40.607Z,26.76
2023-07-24T14:04:08.558Z,25.94
2023-07-24T14:06:36.480Z,26.18
2023-07-24T14:09:05.647Z,26.55
2023-07-24T14:11:33.743Z,26.52
2023-07-24T14:14:01.744Z,26.57
2023-07-24T14:16:29.478Z,26.68
2023-07-24T14:18:57.261Z,26.48
2023-07-24T14:21:24.975Z,26.27
2023-07-24T14:23:52.709Z,26.81
2023-07-24T14:26:21.885Z,26.77
2023-07-24T14:28:49.642Z,26.07
2023-07-24T14:31:17.473Z,25.77
2023-07-24T14:33:45.311Z,25.60
2023-07-24T14:36:13.079Z,25.16
2023-07-24T14:38:40.825Z,25.44
2023-07-24T14:41:08.616Z,25.22
2023-07-24T14:43:37.719Z,24.97
2023-07-24T14:46:05.615Z,24.68
2023-07-24T14:48:34.526Z,24.27
2023-07-24T14:51:02.426Z,24.31
2023-07-24T14:53:30.214Z,24.52
2023-07-24T14:55:58.026Z,24.67
2023-07-24T14:58:25.791Z,24.63
2023-07-24T15:00:54.997Z,24.48
2023-07-24T15:03:23.234Z,24.59
2023-07-24T15:05:51.132Z,24.90
2023-07-24T15:08:18.869Z,25.31
2023-07-24T15:10:46.631Z,25.94
2023-07-24T15:13:15.502Z,27.25
2023-07-24T15:15:43.413Z,27.64
2023-07-24T15:18:12.608Z,27.73
2023-07-24T15:20:40.358Z,27.36
2023-07-24T15:23:10.013Z,26.75
2023-07-24T15:25:38.083Z,26.13
2023-07-24T15:28:06.203Z,26.12
2023-07-24T15:30:33.990Z,25.03
2023-07-24T15:33:01.828Z,25.04
2023-07-24T15:35:31.020Z,24.41
2023-07-24T15:37:58.742Z,23.85
2023-07-24T15:40:26.484Z,23.71
2023-07-24T15:42:54.208Z,23.49
2023-07-24T15:45:21.973Z,23.06
2023-07-24T15:47:49.749Z,22.71
2023-07-24T15:50:17.535Z,22.28
2023-07-24T15:52:46.623Z,21.83
2023-07-24T15:55:14.386Z,21.40
2023-07-24T15:57:42.133Z,21.50
2023-07-24T16:00:11.167Z,21.39
2023-07-24T16:02:39.101Z,21.12
2023-07-24T16:05:07.673Z,20.41
2023-07-24T16:07:35.984Z,20.77
2023-07-24T16:10:05.835Z,20.65
2023-07-24T16:12:33.609Z,20.52
2023-07-24T16:15:01.665Z,20.64
2023-07-24T16:17:33.709Z,20.81
2023-07-24T16:20:01.955Z,21.17
2023-07-24T16:22:30.353Z,21.35
2023-07-24T16:24:58.092Z,21.63
2023-07-24T16:27:27.417Z,21.82
2023-07-24T16:29:55.115Z,22.07
2023-07-24T16:32:28.306Z,22.20
2023-07-24T16:34:56.474Z,22.13
2023-07-24T16:37:25.551Z,22.19
2023-07-24T16:39:53.295Z,22.23
2023-07-24T16:42:21.055Z,22.34
2023-07-24T16:44:58.881Z,22.44
2023-07-24T16:47:27.137Z,22.58
2023-07-24T16:49:54.977Z,22.68
2023-07-24T16:52:23.130Z,22.61
2023-07-24T16:54:51.709Z,22.52
2023-07-24T16:57:19.543Z,22.28
2023-07-24T16:59:47.312Z,21.50
2023-07-24T17:02:16.470Z,21.43
2023-07-24T17:04:44.214Z,21.14
2023-07-24T17:07:12.018Z,21.13
2023-07-24T17:09:39.749Z,21.00
2023-07-24T17:12:08.740Z,21.18
2023-07-24T17:14:36.490Z,21.39
2023-07-24T17:17:04.498Z,21.46
2023-07-24T17:19:33.612Z,21.55
2023-07-24T17:22:01.393Z,21.57
2023-07-24T17:24:29.184Z,21.67
2023-07-24T17:26:56.978Z,21.79
2023-07-24T17:29:24.731Z,21.69
2023-07-24T17:31:52.501Z,21.47
2023-07-24T17:34:20.209Z,21.72
2023-07-24T17:36:49.361Z,21.59
2023-07-24T17:39:17.100Z,21.69
2023-07-24T17:41:44.875Z,21.27
2023-07-24T17:44:12.631Z,21.06
2023-07-24T17:46:40.408Z,21.26
2023-07-24T17:49:08.278Z,21.24
2023-07-24T17:51:36.171Z,21.49
2023-07-24T17:54:05.770Z,21.67
2023-07-24T17:56:33.488Z,21.71
2023-07-24T17:59:01.297Z,21.68
2023-07-24T18:01:29.303Z,21.76
2023-07-24T18:03:57.408Z,21.72
2023-07-24T18:06:25.183Z,21.61
2023-07-24T18:08:52.934Z,21.15
2023-07-24T18:11:22.560Z,21.34
2023-07-24T18:13:50.320Z,21.28
2023-07-24T18:16:18.163Z,21.04
2023-07-24T18:18:45.972Z,21.29
2023-07-24T18:21:13.715Z,21.23
2023-07-24T18:23:41.420Z,21.31
2023-07-24T18:26:10.611Z,21.27
2023-07-24T18:28:39.763Z,21.41
2023-07-24T18:31:08.739Z,21.31
2023-07-24T18:33:37.074Z,21.23
2023-07-24T18:36:05.232Z,21.26
2023-07-24T18:38:33.008Z,21.30
2023-07-24T18:41:01.151Z,21.14
2023-07-24T18:43:29.253Z,21.30
2023-07-24T18:45:58.853Z,21.12
2023-07-24T18:48:27.296Z,21.19
2023-07-24T18:50:55.236Z,21.27
2023-07-24T18:53:22.996Z,21.12
2023-07-24T18:55:50.784Z,21.34
2023-07-24T18:58:18.575Z,21.50
2023-07-24T19:00:46.341Z,21.48
2023-07-24T19:03:15.496Z,21.53
2023-07-24T19:05:43.274Z,21.34
2023-07-24T19:08:11.135Z,21.31
2023-07-24T19:10:38.952Z,21.40
2023-07-24T19:13:06.850Z,21.29
2023-07-24T19:15:34.591Z,21.32
2023-07-24T19:18:02.340Z,21.37
2023-07-24T19:20:33.443Z,21.53
2023-07-24T19:23:03.673Z,21.63
2023-07-24T19:25:32.474Z,21.58
2023-07-24T19:28:00.266Z,21.44
2023-07-24T19:30:28.089Z,21.61
2023-07-24T19:32:55.949Z,21.69
2023-07-24T19:35:23.755Z,21.70
2023-07-24T19:37:52.839Z,21.60
2023-07-24T19:40:20.584Z,21.17
2023-07-24T19:42:48.351Z,21.11
2023-07-24T19:45:16.220Z,21.14
2023-07-24T19:47:44.099Z,21.36
2023-07-24T19:50:11.897Z,21.31
2023-07-24T19:52:39.665Z,21.10
2023-07-24T19:55:12.252Z,21.03
2023-07-24T19:57:40.242Z,21.00
2023-07-24T20:00:09.253Z,21.03
2023-07-24T20:02:37.088Z,21.27
2023-07-24T20:05:05.138Z,21.33
2023-07-24T20:07:32.901Z,21.31
2023-07-24T20:10:01.179Z,21.32
2023-07-24T20:12:30.391Z,21.36
2023-07-24T20:14:58.104Z,21.29
2023-07-24T20:17:25.902Z,21.37
2023-07-24T20:19:53.666Z,21.39
2023-07-24T20:22:21.498Z,21.22
2023-07-24T20:24:49.282Z,21.23
2023-07-24T20:27:17.018Z,21.16
2023-07-24T20:29:46.115Z,20.68
2023-07-24T20:32:15.021Z,20.59
2023-07-24T20:34:42.792Z,20.92
2023-07-24T20:37:10.558Z,21.04
2023-07-24T20:39:38.299Z,21.07
2023-07-24T20:42:06.958Z,21.06
2023-07-24T20:44:34.700Z,21.11
2023-07-24T20:47:03.936Z,21.00
2023-07-24T20:49:31.686Z,21.08
2023-07-24T20:51:59.443Z,21.09
2023-07-24T20:54:27.223Z,21.10
2023-07-24T20:56:54.983Z,21.10
2023-07-24T20:59:22.784Z,21.07
2023-07-24T21:01:50.529Z,20.53
2023-07-24T21:04:19.750Z,20.42
2023-07-24T21:06:47.622Z,20.46
2023-07-24T21:09:15.410Z,20.50
2023-07-24T21:11:43.207Z,20.42
2023-07-24T21:14:11.017Z,20.17
2023-07-24T21:16:39.544Z,20.02
2023-07-24T21:19:07.315Z,20.01
2023-07-24T21:21:36.414Z,20.27
2023-07-24T21:24:04.423Z,20.21
2023-07-24T21:26:32.211Z,20.20
2023-07-24T21:28:59.984Z,20.34
2023-07-24T21:31:27.734Z,20.30
2023-07-24T21:33:55.715Z,20.33
2023-07-24T21:36:23.453Z,19.91
2023-07-24T21:38:53.139Z,20.09
2023-07-24T21:41:20.833Z,19.73
2023-07-24T21:43:48.542Z,19.84
2023-07-24T21:46:16.343Z,19.84
2023-07-24T21:48:44.119Z,19.92
2023-07-24T21:51:11.865Z,19.77
2023-07-24T21:53:39.652Z,19.87
2023-07-24T21:56:08.957Z,20.15
2023-07-24T21:58:36.739Z,20.06
2023-07-24T22:01:04.516Z,19.75
2023-07-24T22:03:32.387Z,19.53
2023-07-24T22:06:00.220Z,19.61
2023-07-24T22:08:28.165Z,19.83
2023-07-24T22:10:55.928Z,19.85
2023-07-24T22:13:25.052Z,19.89
2023-07-24T22:15:52.778Z,19.92
2023-07-24T22:18:20.536Z,19.73
2023-07-24T22:20:48.319Z,19.70
2023-07-24T22:23:16.082Z,19.67
2023-07-24T22:25:44.653Z,19.61
2023-07-24T22:28:12.431Z,19.79
2023-07-24T22:30:41.539Z,19.40
2023-07-24T22:33:09.370Z,19.24
2023-07-24T22:35:37.153Z,19.62
2023-07-24T22:38:05.034Z,19.89
2023-07-24T22:40:33.420Z,19.97
2023-07-24T22:43:01.156Z,19.72
2023-07-24T22:45:29.252Z,19.69
2023-07-24T22:47:58.609Z,19.59
2023-07-24T22:50:26.505Z,19.62
2023-07-24T22:52:54.252Z,19.82
2023-07-24T22:55:21.979Z,19.97
2023-07-24T22:57:49.757Z,19.83
2023-07-24T23:00:17.737Z,19.57
2023-07-24T23:02:45.553Z,19.29
2023-07-24T23:05:15.124Z,19.51
2023-07-24T23:07:42.834Z,19.36
2023-07-24T23:10:11.552Z,19.19
2023-07-24T23:12:39.348Z,19.39
2023-07-24T23:15:07.773Z,19.35
2023-07-24T23:17:35.530Z,18.96
2023-07-24T23:20:03.406Z,19.27
2023-07-24T23:22:32.473Z,19.38
2023-07-24T23:25:00.234Z,19.34
2023-07-24T23:27:27.971Z,19.22
2023-07-24T23:29:55.674Z,19.31
2023-07-24T23:32:23.507Z,19.19
2023-07-24T23:34:51.299Z,19.32
2023-07-24T23:37:19.082Z,19.35
2023-07-24T23:39:48.227Z,19.04
2023-07-24T23:42:16.054Z,19.39
2023-07-24T23:44:43.787Z,19.31
2023-07-24T23:47:12.427Z,19.41
2023-07-24T23:49:40.578Z,19.39
2023-07-24T23:52:09.559Z,19.34
2023-07-24T23:54:37.303Z,19.49
2023-07-24T23:57:06.866Z,19.58
2023-07-24T23:59:34.599Z,19.67
